Time;durP1;ratioP1;P1;durP2;ratioP2;P2;SDS_P1;SDS_P2;PMS_P1;PMS_P2;Temp;Humidity;BMP_temperature;BMP_pressure;BME280_temperature;BME280_humidity;BME280_pressure;Samples;Min_cycle;Max_cycle;Signal;HPM_P1;HPM_P2
2022/01/06 00:01:11;;;;;;;;;;;;;;;5.33;59.48;98978.53;4474531;31;19984;-92
2022/01/06 00:03:36;;;;;;;;;;;;;;;5.34;59.47;98980.22;4474683;31;20038;-92
2022/01/06 00:06:08;;;;;;;;;;;;;;;5.60;59.48;98986.50;4474885;31;19983;-93
2022/01/06 00:08:34;;;;;;;;;;;;;;;5.50;59.48;98985.91;4475412;31;19979;-93
2022/01/06 00:11:00;;;;;;;;;;;;;;;5.78;59.50;98976.59;4474879;31;20048;-92
2022/01/06 00:13:45;;;;;;;;;;;;;;;5.61;59.48;98980.47;4474471;31;19992;-93
2022/01/06 00:16:23;;;;;;;;;;;;;;;5.58;59.49;98988.28;4476868;31;20060;-91
2022/01/06 00:23:57;;;;;;;;;;;;;;;5.46;59.48;98971.37;4489866;31;20371;-92
2022/01/06 00:26:23;;;;;;;;;;;;;;;5.64;59.49;98963.16;4474699;31;19988;-92
2022/01/06 00:28:48;;;;;;;;;;;;;;;5.47;59.48;98965.31;4489406;31;20761;-93
2022/01/06 00:31:13;;;;;;;;;;;;;;;5.53;59.49;98975.50;4477040;31;19992;-92
2022/01/06 00:33:38;;;;;;;;;;;;;;;5.49;59.48;98968.72;4477179;31;19991;-92
2022/01/06 00:36:04;;;;;;;;;;;;;;;5.31;59.47;98966.56;4488334;31;20035;-95
2022/01/06 00:38:29;;;;;;;;;;;;;;;5.21;59.46;98959.03;4476584;31;20014;-92
2022/01/06 00:40:54;;;;;;;;;;;;;;;5.34;59.47;98961.31;4476689;31;20347;-93
2022/01/06 00:43:20;;;;;;;;;;;;;;;5.36;59.47;98959.56;4476595;31;19994;-95
2022/01/06 00:45:45;;;;;;;;;;;;;;;5.41;59.48;98943.06;4476093;31;19984;-91
2022/01/06 00:48:10;;;;;;;;;;;;;;;5.58;59.49;98934.91;4473641;31;20004;-92
2022/01/06 00:50:36;;;;;;;;;;;;;;;5.48;59.48;98917.97;4474515;31;19984;-91
2022/01/06 00:53:04;;;;;;;;;;;;;;;5.50;59.48;98923.94;4477303;31;19966;-92
2022/01/06 00:55:33;;;;;;;;;;;;;;;5.57;59.49;98917.75;4475308;31;20092;-93
2022/01/06 00:57:58;;;;;;;;;;;;;;;5.65;59.49;98904.63;4475617;31;19992;-92
2022/01/06 01:00:27;;;;;;;;;;;;;;;5.55;59.49;98916.94;4475196;31;20335;-93
2022/01/06 01:02:52;;;;;;;;;;;;;;;5.53;59.49;98913.53;4475699;31;20372;-93
2022/01/06 01:05:17;;;;;;;;;;;;;;;5.49;59.49;98896.44;4475341;31;20032;-92
2022/01/06 01:07:43;;;;;;;;;;;;;;;5.54;59.49;98899.75;4487672;31;20335;-92
2022/01/06 01:10:08;;;;;;;;;;;;;;;5.30;59.47;98890.03;4475327;31;20014;-91
2022/01/06 01:12:33;;;;;;;;;;;;;;;5.06;59.45;98900.06;4474866;31;19994;-92
2022/01/06 01:15:07;;;;;;;;;;;;;;;4.91;59.45;98908.12;4476950;31;20268;-92
2022/01/06 01:17:33;;;;;;;;;;;;;;;5.09;59.46;98912.03;4488523;31;19988;-92
2022/01/06 01:19:58;;;;;;;;;;;;;;;5.01;59.46;98919.94;4474257;31;20320;-92
2022/01/06 01:22:23;;;;;;;;;;;;;;;5.16;59.47;98917.00;4474797;31;20006;-92
2022/01/06 01:24:49;;;;;;;;;;;;;;;5.22;59.46;98918.63;4474331;31;20011;-92
2022/01/06 01:27:21;;;;;;;;;;;;;;;5.15;59.46;98914.44;4474575;31;20003;-92
2022/01/06 01:30:03;;;;;;;;;;;;;;;5.15;59.46;98917.03;4488748;31;20004;-91
2022/01/06 01:32:32;;;;;;;;;;;;;;;5.04;59.46;98934.50;4476664;31;20035;-93
2022/01/06 01:35:01;;;;;;;;;;;;;;;5.07;59.46;98950.75;4476843;31;19985;-92
2022/01/06 01:37:27;;;;;;;;;;;;;;;5.19;59.46;98944.44;4478035;31;20054;-93
2022/01/06 01:39:52;;;;;;;;;;;;;;;5.25;59.47;98944.34;4478602;31;20358;-93
2022/01/06 01:42:20;;;;;;;;;;;;;;;5.06;59.46;98943.06;4487932;31;20007;-96
2022/01/06 01:44:47;;;;;;;;;;;;;;;5.21;59.46;98940.97;4489535;31;19963;-95
2022/01/06 01:47:14;;;;;;;;;;;;;;;5.06;59.46;98930.16;4491142;31;19957;-94
2022/01/06 01:49:56;;;;;;;;;;;;;;;5.05;59.46;98921.56;4486263;31;19968;-96
2022/01/06 01:52:21;;;;;;;;;;;;;;;4.85;59.44;98914.28;4491809;31;20000;-96
2022/01/06 01:54:47;;;;;;;;;;;;;;;5.06;59.46;98900.06;4477105;31;20015;-95
2022/01/06 02:07:33;;;;;;;;;;;;;;;5.04;59.45;98917.28;4450877;31;19956;-95
2022/01/06 02:09:59;;;;;;;;;;;;;;;5.10;59.46;98932.63;4481585;31;19989;-93
2022/01/06 02:12:28;;;;;;;;;;;;;;;5.16;59.47;98945.38;4477513;31;20000;-94
2022/01/06 02:14:57;;;;;;;;;;;;;;;5.07;59.45;98945.59;4477426;31;19976;-94
2022/01/06 02:17:22;;;;;;;;;;;;;;;5.12;59.46;98946.34;4477565;31;19984;-93
2022/01/06 02:19:54;;;;;;;;;;;;;;;5.28;59.47;98951.16;4476936;31;19984;-93
2022/01/06 02:22:23;;;;;;;;;;;;;;;5.21;59.46;98946.16;4490557;31;20398;-94
2022/01/06 02:24:49;;;;;;;;;;;;;;;5.23;59.46;98946.94;4477007;31;20032;-92
2022/01/06 02:33:27;;;;;;;;;;;;;;;5.11;59.46;98897.34;4495502;31;19999;-94
2022/01/06 02:42:06;;;;;;;;;;;;;;;5.04;59.46;98894.09;4424583;32;20004;-94
2022/01/06 02:47:28;;;;;;;;;;;;;;;5.03;59.46;98892.38;4432512;32;20000;-96
2022/01/06 02:49:54;;;;;;;;;;;;;;;5.02;59.46;98889.84;4432547;32;20027;-96
2022/01/06 02:52:42;;;;;;;;;;;;;;;5.02;59.46;98903.59;4531969;27;20053;-94
2022/01/06 03:00:23;;;;;;;;;;;;;;;4.91;59.45;98949.37;4517949;27;19966;-92
2022/01/06 03:02:48;;;;;;;;;;;;;;;5.00;59.45;98956.94;4381632;32;20002;-93
2022/01/06 03:05:24;;;;;;;;;;;;;;;4.92;59.45;98963.97;4382668;32;20028;-93
2022/01/06 03:07:50;;;;;;;;;;;;;;;4.98;59.45;98974.19;4399983;32;19962;-96
2022/01/06 03:10:18;;;;;;;;;;;;;;;4.94;59.46;98973.38;4385262;32;19997;-95
2022/01/06 03:13:04;;;;;;;;;;;;;;;5.05;59.46;98977.47;4385465;32;19976;-96
2022/01/06 03:15:30;;;;;;;;;;;;;;;5.04;59.46;98975.78;4398089;32;19958;-96
2022/01/06 03:17:59;;;;;;;;;;;;;;;5.04;59.46;98973.19;4385608;32;20009;-96
2022/01/06 03:20:30;;;;;;;;;;;;;;;5.04;59.46;98980.94;4401967;32;19947;-96
2022/01/06 03:23:00;;;;;;;;;;;;;;;5.09;59.46;98992.84;4403684;32;19990;-96
2022/01/06 03:41:26;;;;;;;;;;;;;;;5.10;59.46;98996.25;4563902;26;19945;-92
2022/01/06 03:44:00;;;;;;;;;;;;;;;5.18;59.47;98996.94;4431097;32;20045;-93
2022/01/06 03:46:25;;;;;;;;;;;;;;;5.25;59.47;98998.50;4432242;32;19988;-91
2022/01/06 03:48:50;;;;;;;;;;;;;;;4.96;59.45;99006.03;4443366;32;20011;-93
2022/01/06 03:51:18;;;;;;;;;;;;;;;4.98;59.45;99004.28;4442476;32;19973;-91
2022/01/06 03:53:43;;;;;;;;;;;;;;;4.98;59.45;99007.72;4442223;32;20001;-91
2022/01/06 03:56:11;;;;;;;;;;;;;;;5.02;59.46;99005.91;4442810;32;20040;-93
2022/01/06 03:58:39;;;;;;;;;;;;;;;4.93;59.45;99017.25;4433603;32;19993;-92
2022/01/06 04:01:07;;;;;;;;;;;;;;;4.96;59.45;99016.34;4427605;32;20015;-92
2022/01/06 04:03:38;;;;;;;;;;;;;;;4.77;59.44;99016.75;4428011;32;20009;-94
2022/01/06 04:06:14;;;;;;;;;;;;;;;4.72;59.44;99015.97;4427992;32;20004;-94
2022/01/06 04:12:04;;;;;;;;;;;;;;;4.79;59.45;99008.97;4409394;32;19981;-95
2022/01/06 04:14:29;;;;;;;;;;;;;;;4.83;59.44;99008.88;4426393;32;19997;-95
2022/01/06 04:17:01;;;;;;;;;;;;;;;4.95;59.46;99002.59;4428274;32;20344;-96
2022/01/06 04:22:49;;;;;;;;;;;;;;;5.03;59.46;99000.72;4392306;32;19978;-90
2022/01/06 04:25:14;;;;;;;;;;;;;;;5.23;59.47;98997.72;4366896;32;20028;-92
2022/01/06 04:27:39;;;;;;;;;;;;;;;5.35;59.47;99001.72;4400730;32;19985;-92
2022/01/06 04:30:05;;;;;;;;;;;;;;;5.52;59.48;99004.78;4427259;32;20388;-91
2022/01/06 04:32:31;;;;;;;;;;;;;;;5.51;59.48;98997.91;4428197;32;20228;-91
2022/01/06 04:34:56;;;;;;;;;;;;;;;5.47;59.48;99002.31;4433732;32;19980;-90
2022/01/06 04:37:22;;;;;;;;;;;;;;;5.23;59.46;99002.87;4427857;32;20051;-91
2022/01/06 04:39:47;;;;;;;;;;;;;;;5.38;59.47;99002.50;4437246;32;19985;-91
2022/01/06 04:42:12;;;;;;;;;;;;;;;4.99;59.45;99005.97;4432924;32;19966;-90
2022/01/06 04:44:37;;;;;;;;;;;;;;;4.93;59.46;99015.53;4425821;32;20302;-91
2022/01/06 04:47:02;;;;;;;;;;;;;;;5.12;59.46;99017.72;4412870;32;20034;-91
2022/01/06 04:49:28;;;;;;;;;;;;;;;5.10;59.46;99027.22;4425725;32;20021;-91
2022/01/06 04:51:53;;;;;;;;;;;;;;;5.00;59.45;99029.16;4424938;32;19988;-90
2022/01/06 04:54:18;;;;;;;;;;;;;;;5.06;59.46;99031.59;4425125;32;20033;-91
2022/01/06 04:56:44;;;;;;;;;;;;;;;5.00;59.45;99044.62;4426514;32;19993;-93
2022/01/06 04:59:09;;;;;;;;;;;;;;;5.05;59.46;99047.97;4428036;32;20057;-94
2022/01/06 05:01:37;;;;;;;;;;;;;;;5.10;59.47;99050.44;4427691;32;19988;-91
2022/01/06 05:04:03;;;;;;;;;;;;;;;5.14;59.46;99060.66;4426934;32;19993;-90
2022/01/06 05:06:28;;;;;;;;;;;;;;;4.93;59.44;99059.38;4426019;32;20254;-95
2022/01/06 05:08:53;;;;;;;;;;;;;;;5.01;59.46;99066.97;4432032;32;19973;-95
2022/01/06 05:11:19;;;;;;;;;;;;;;;5.16;59.47;99061.47;4427949;32;20011;-94
2022/01/06 05:13:45;;;;;;;;;;;;;;;5.30;59.47;99066.34;4427690;32;20341;-94
2022/01/06 05:16:14;;;;;;;;;;;;;;;5.19;59.47;99076.88;4426201;32;19989;-95
2022/01/06 05:18:41;;;;;;;;;;;;;;;5.30;59.47;99080.97;4426988;32;19973;-94
2022/01/06 05:21:07;;;;;;;;;;;;;;;5.13;59.46;99081.31;4426979;32;19995;-94
2022/01/06 05:23:32;;;;;;;;;;;;;;;5.24;59.46;99076.81;4429281;32;19961;-94
2022/01/06 05:25:58;;;;;;;;;;;;;;;5.23;59.46;99081.13;4426787;32;20028;-94
2022/01/06 05:28:23;;;;;;;;;;;;;;;5.23;59.46;99081.13;4426852;32;19981;-93
2022/01/06 05:30:49;;;;;;;;;;;;;;;5.09;59.46;99085.69;4426974;32;20025;-94
2022/01/06 05:33:14;;;;;;;;;;;;;;;5.24;59.46;99087.13;4426577;32;19986;-94
2022/01/06 05:35:39;;;;;;;;;;;;;;;5.27;59.47;99087.06;4425728;32;20074;-94
2022/01/06 05:38:04;;;;;;;;;;;;;;;5.21;59.46;99084.63;4426665;32;19993;-92
2022/01/06 05:40:30;;;;;;;;;;;;;;;5.18;59.47;99093.25;4425164;32;20235;-91
2022/01/06 05:45:50;;;;;;;;;;;;;;;5.42;59.48;99080.69;4395514;32;20009;-93
2022/01/06 05:51:09;;;;;;;;;;;;;;;5.31;59.48;99083.53;4452570;32;19961;-92
2022/01/06 05:53:34;;;;;;;;;;;;;;;5.23;59.46;99091.44;4439905;32;19984;-92
2022/01/06 05:55:59;;;;;;;;;;;;;;;5.29;59.46;99089.59;4439700;32;20011;-93
2022/01/06 05:58:24;;;;;;;;;;;;;;;5.26;59.47;99087.94;4426355;32;19981;-94
2022/01/06 06:00:50;;;;;;;;;;;;;;;4.90;59.45;99098.09;4438519;32;20016;-92
2022/01/06 06:03:15;;;;;;;;;;;;;;;4.76;59.44;99088.97;4438674;32;20007;-93
2022/01/06 06:05:41;;;;;;;;;;;;;;;4.79;59.45;99089.75;4439181;32;20007;-93
2022/01/06 06:08:07;;;;;;;;;;;;;;;4.79;59.45;99092.31;4439681;32;19973;-93
2022/01/06 06:10:32;;;;;;;;;;;;;;;4.83;59.44;99091.38;4425979;32;20046;-92
2022/01/06 06:12:58;;;;;;;;;;;;;;;4.91;59.45;99088.66;4437813;32;19986;-91
2022/01/06 06:15:23;;;;;;;;;;;;;;;4.56;59.42;99097.06;4438838;32;19993;-93
2022/01/06 06:17:49;;;;;;;;;;;;;;;4.52;59.43;99082.53;4438758;32;19992;-92
2022/01/06 06:20:14;;;;;;;;;;;;;;;4.55;59.43;99092.78;4427386;32;19953;-91
2022/01/06 06:22:40;;;;;;;;;;;;;;;4.46;59.42;99093.78;4437285;32;20000;-92
2022/01/06 06:25:05;;;;;;;;;;;;;;;4.56;59.43;99097.06;4437704;32;20001;-91
2022/01/06 06:27:30;;;;;;;;;;;;;;;4.70;59.43;99100.22;4425455;32;19981;-93
2022/01/06 06:29:56;;;;;;;;;;;;;;;4.66;59.44;99096.00;4439314;32;19977;-94
2022/01/06 06:32:21;;;;;;;;;;;;;;;4.78;59.43;99105.25;4438456;32;20023;-92
2022/01/06 06:34:46;;;;;;;;;;;;;;;4.52;59.43;99113.47;4437603;32;20025;-92
2022/01/06 06:37:11;;;;;;;;;;;;;;;4.62;59.44;99120.97;4438065;32;19990;-92
2022/01/06 06:39:37;;;;;;;;;;;;;;;4.57;59.43;99122.81;4437542;32;20021;-93
2022/01/06 06:42:02;;;;;;;;;;;;;;;4.66;59.44;99124.34;4439957;32;19981;-92
2022/01/06 06:44:27;;;;;;;;;;;;;;;4.80;59.45;99127.53;4424544;32;20007;-94
2022/01/06 06:46:52;;;;;;;;;;;;;;;4.81;59.45;99130.97;4439957;32;20256;-94
2022/01/06 06:49:18;;;;;;;;;;;;;;;4.76;59.44;99131.06;4439804;32;20011;-95
2022/01/06 06:51:43;;;;;;;;;;;;;;;4.83;59.45;99144.69;4440027;32;19990;-93
2022/01/06 06:54:08;;;;;;;;;;;;;;;4.84;59.44;99148.97;4440140;32;19986;-93
2022/01/06 06:56:33;;;;;;;;;;;;;;;4.89;59.45;99150.56;4440285;32;19993;-92
2022/01/06 06:58:59;;;;;;;;;;;;;;;4.95;59.46;99154.75;4439943;32;19996;-93
2022/01/06 07:01:24;;;;;;;;;;;;;;;4.96;59.45;99164.19;4442610;32;20002;-93
2022/01/06 07:03:49;;;;;;;;;;;;;;;4.95;59.46;99170.22;4453951;32;19978;-94
2022/01/06 07:06:14;;;;;;;;;;;;;;;4.85;59.44;99179.88;4454232;32;20003;-92
2022/01/06 07:08:40;;;;;;;;;;;;;;;5.00;59.45;99176.16;4453773;32;19996;-93
2022/01/06 07:11:07;;;;;;;;;;;;;;;4.97;59.46;99181.38;4429753;32;20036;-93
2022/01/06 07:13:38;;;;;;;;;;;;;;;5.12;59.46;99183.66;4428794;32;19970;-95
2022/01/06 07:16:03;;;;;;;;;;;;;;;5.09;59.46;99186.31;4440900;32;19991;-94
2022/01/06 07:18:29;;;;;;;;;;;;;;;5.00;59.46;99189.06;4442470;32;19985;-93
2022/01/06 07:20:54;;;;;;;;;;;;;;;4.80;59.45;99196.31;4440289;32;20001;-94
2022/01/06 07:23:22;;;;;;;;;;;;;;;4.78;59.44;99201.50;4440748;32;20008;-96
2022/01/06 07:25:47;;;;;;;;;;;;;;;4.94;59.46;99207.22;4428205;32;19981;-94
2022/01/06 07:28:12;;;;;;;;;;;;;;;4.82;59.45;99208.28;4440784;32;20019;-94
2022/01/06 07:30:37;;;;;;;;;;;;;;;4.82;59.45;99215.19;4440745;32;20008;-92
2022/01/06 07:33:03;;;;;;;;;;;;;;;4.94;59.46;99222.69;4440812;32;20012;-94
2022/01/06 07:35:28;;;;;;;;;;;;;;;4.91;59.45;99233.06;4440725;32;19969;-93
2022/01/06 07:37:53;;;;;;;;;;;;;;;4.77;59.44;99220.41;4442687;32;19982;-94
2022/01/06 07:40:19;;;;;;;;;;;;;;;4.79;59.45;99218.66;4440720;32;20045;-94
2022/01/06 07:42:44;;;;;;;;;;;;;;;4.98;59.45;99223.50;4440696;32;20028;-94
2022/01/06 07:45:10;;;;;;;;;;;;;;;5.04;59.46;99238.87;4440512;32;20007;-95
2022/01/06 07:47:42;;;;;;;;;;;;;;;4.96;59.45;99249.28;4440645;32;20000;-94
2022/01/06 07:50:08;;;;;;;;;;;;;;;4.95;59.46;99247.59;4440041;32;20011;-94
2022/01/06 07:52:33;;;;;;;;;;;;;;;5.03;59.46;99250.06;4440385;32;20289;-95
2022/01/06 07:54:58;;;;;;;;;;;;;;;5.15;59.46;99257.56;4440268;32;19998;-93
2022/01/06 07:57:23;;;;;;;;;;;;;;;5.32;59.48;99267.59;4440651;32;19981;-94
2022/01/06 07:59:49;;;;;;;;;;;;;;;5.29;59.47;99265.91;4440652;32;20040;-94
2022/01/06 08:02:14;;;;;;;;;;;;;;;5.40;59.48;99276.03;4427394;32;19985;-94
2022/01/06 08:04:39;;;;;;;;;;;;;;;5.57;59.49;99270.56;4439899;32;19973;-95
2022/01/06 08:07:05;;;;;;;;;;;;;;;5.50;59.48;99282.75;4440495;32;20322;-96
2022/01/06 08:09:30;;;;;;;;;;;;;;;5.64;59.49;99282.47;4440549;32;19989;-95
2022/01/06 08:11:56;;;;;;;;;;;;;;;5.65;59.49;99284.16;4440592;32;20013;-94
2022/01/06 08:14:21;;;;;;;;;;;;;;;5.72;59.50;99285.75;4440523;32;20021;-94
2022/01/06 08:16:46;;;;;;;;;;;;;;;5.62;59.49;99287.66;4440446;32;20050;-95
2022/01/06 08:19:12;;;;;;;;;;;;;;;5.92;59.51;99293.16;4448376;32;19954;-92
2022/01/06 08:21:37;;;;;;;;;;;;;;;5.76;59.50;99285.66;4444411;32;20028;-94
2022/01/06 08:24:02;;;;;;;;;;;;;;;5.87;59.50;99288.88;4441724;32;19970;-95
2022/01/06 08:26:28;;;;;;;;;;;;;;;5.93;59.51;99287.09;4441036;32;19996;-96
2022/01/06 08:28:53;;;;;;;;;;;;;;;6.13;59.51;99290.09;4440337;32;20005;-93
2022/01/06 08:31:18;;;;;;;;;;;;;;;6.18;59.52;99288.28;4440377;32;20020;-96
2022/01/06 08:33:44;;;;;;;;;;;;;;;6.21;59.53;99297.69;4439988;32;19990;-94
2022/01/06 08:36:09;;;;;;;;;;;;;;;6.19;59.52;99304.62;4426421;32;19990;-94
2022/01/06 08:38:35;;;;;;;;;;;;;;;6.44;59.54;99314.41;4440131;32;19997;-95
2022/01/06 08:41:00;;;;;;;;;;;;;;;6.43;59.54;99315.28;4440333;32;19989;-96
2022/01/06 08:43:27;;;;;;;;;;;;;;;6.66;59.55;99319.94;4440798;32;19981;-93
2022/01/06 08:46:01;;;;;;;;;;;;;;;6.71;59.55;99323.25;4440248;32;19962;-95
2022/01/06 08:48:27;;;;;;;;;;;;;;;6.81;59.56;99323.03;4427725;32;20000;-95
2022/01/06 08:50:52;;;;;;;;;;;;;;;6.86;59.56;99327.25;4440430;32;19989;-95
2022/01/06 08:53:17;;;;;;;;;;;;;;;6.95;59.57;99332.19;4441600;32;19981;-95
2022/01/06 08:55:46;;;;;;;;;;;;;;;6.79;59.55;99328.25;4443325;32;20255;-95
2022/01/06 08:58:12;;;;;;;;;;;;;;;6.70;59.55;99336.22;4440607;32;20008;-95
2022/01/06 09:00:39;;;;;;;;;;;;;;;6.72;59.56;99335.31;4440366;32;20017;-94
2022/01/06 09:03:05;;;;;;;;;;;;;;;6.69;59.55;99331.94;4440428;32;20620;-96
2022/01/06 09:05:30;;;;;;;;;;;;;;;6.75;59.55;99330.06;4440074;32;19974;-94
2022/01/06 09:07:57;;;;;;;;;;;;;;;6.83;59.56;99331.59;4440034;32;19982;-95
2022/01/06 09:10:23;;;;;;;;;;;;;;;6.87;59.56;99338.44;4438735;32;20660;-94
2022/01/06 09:12:48;;;;;;;;;;;;;;;6.93;59.56;99335.69;4439767;32;19973;-96
2022/01/06 09:15:13;;;;;;;;;;;;;;;7.02;59.57;99331.13;4442377;32;20011;-93
2022/01/06 09:17:39;;;;;;;;;;;;;;;6.73;59.55;99338.75;4439925;32;20005;-94
2022/01/06 09:20:04;;;;;;;;;;;;;;;6.85;59.55;99338.44;4439665;32;20001;-94
2022/01/06 09:22:30;;;;;;;;;;;;;;;6.94;59.57;99340.84;4426848;32;19978;-95
2022/01/06 09:24:55;;;;;;;;;;;;;;;6.65;59.54;99343.25;4439745;32;19989;-93
2022/01/06 09:27:20;;;;;;;;;;;;;;;6.72;59.56;99335.31;4439323;32;19981;-96
2022/01/06 09:29:45;;;;;;;;;;;;;;;6.62;59.54;99349.31;4439572;32;20027;-96
2022/01/06 09:32:11;;;;;;;;;;;;;;;6.73;59.56;99346.50;4439011;32;19978;-93
2022/01/06 09:34:36;;;;;;;;;;;;;;;6.82;59.56;99338.53;4439427;32;19992;-95
2022/01/06 09:37:01;;;;;;;;;;;;;;;6.84;59.56;99351.41;4439500;32;19997;-94
2022/01/06 09:39:27;;;;;;;;;;;;;;;6.82;59.56;99350.59;4439457;32;20061;-92
2022/01/06 09:41:52;;;;;;;;;;;;;;;6.72;59.56;99350.81;4439054;32;19988;-95
2022/01/06 09:44:17;;;;;;;;;;;;;;;6.60;59.55;99352.81;4439195;32;20034;-93
2022/01/06 09:46:43;;;;;;;;;;;;;;;6.62;59.54;99363.97;4426506;32;20011;-93
2022/01/06 09:49:08;;;;;;;;;;;;;;;6.53;59.54;99359.88;4439214;32;19985;-94
2022/01/06 09:51:33;;;;;;;;;;;;;;;6.69;59.55;99360.41;4439193;32;20766;-94
2022/01/06 09:53:59;;;;;;;;;;;;;;;6.91;59.56;99356.44;4439385;32;19990;-94
2022/01/06 09:56:26;;;;;;;;;;;;;;;7.15;59.57;99355.00;4426977;32;19989;-96
2022/01/06 09:58:52;;;;;;;;;;;;;;;7.03;59.57;99356.13;4426258;32;20364;-95
2022/01/06 10:01:17;;;;;;;;;;;;;;;6.86;59.56;99355.69;4439332;32;20013;-93
2022/01/06 10:03:44;;;;;;;;;;;;;;;6.92;59.56;99360.72;4439396;32;20325;-93
2022/01/06 10:06:09;;;;;;;;;;;;;;;7.08;59.57;99368.94;4426618;32;20012;-94
2022/01/06 10:08:35;;;;;;;;;;;;;;;7.08;59.57;99372.38;4426439;32;19997;-94
2022/01/06 10:11:09;;;;;;;;;;;;;;;7.18;59.58;99375.63;4438883;32;20340;-96
2022/01/06 10:13:34;;;;;;;;;;;;;;;6.81;59.56;99373.03;4426106;32;19997;-93
2022/01/06 10:15:59;;;;;;;;;;;;;;;6.92;59.57;99384.00;4438740;32;20024;-95
2022/01/06 10:18:24;;;;;;;;;;;;;;;6.97;59.57;99379.56;4437703;32;20012;-94
2022/01/06 10:20:52;;;;;;;;;;;;;;;7.31;59.58;99368.41;4439389;32;20028;-94
2022/01/06 10:23:17;;;;;;;;;;;;;;;7.55;59.60;99369.50;4441133;32;20036;-93
2022/01/06 10:25:48;;;;;;;;;;;;;;;7.62;59.61;99378.84;4441315;32;19993;-95
2022/01/06 10:28:19;;;;;;;;;;;;;;;7.57;59.60;99376.37;4428440;32;20039;-96
2022/01/06 10:30:48;;;;;;;;;;;;;;;7.60;59.60;99378.88;4428299;32;20372;-94
2022/01/06 10:33:17;;;;;;;;;;;;;;;7.81;59.61;99377.47;4441013;32;20000;-95
2022/01/06 10:35:42;;;;;;;;;;;;;;;7.52;59.60;99388.56;4428059;32;19990;-94
2022/01/06 10:38:07;;;;;;;;;;;;;;;7.77;59.62;99382.75;4440791;32;20047;-94
2022/01/06 10:40:32;;;;;;;;;;;;;;;7.83;59.61;99388.66;4440505;32;20019;-93
2022/01/06 10:42:57;;;;;;;;;;;;;;;7.83;59.61;99392.97;4440555;32;20291;-93
2022/01/06 10:45:25;;;;;;;;;;;;;;;7.62;59.61;99389.22;4440660;32;20024;-94
2022/01/06 10:47:54;;;;;;;;;;;;;;;7.62;59.61;99386.63;4427465;32;20853;-93
2022/01/06 10:50:24;;;;;;;;;;;;;;;7.73;59.61;99391.50;4427915;32;19969;-93
2022/01/06 10:52:50;;;;;;;;;;;;;;;7.42;59.59;99392.28;4427750;32;20001;-94
2022/01/06 10:55:16;;;;;;;;;;;;;;;7.50;59.60;99387.75;4427875;32;19995;-94
2022/01/06 10:58:00;;;;;;;;;;;;;;;7.37;59.59;99399.34;4440751;32;20050;-95
2022/01/06 11:00:29;;;;;;;;;;;;;;;7.56;59.60;99397.13;4428089;32;20026;-95
2022/01/06 11:03:04;;;;;;;;;;;;;;;7.54;59.60;99404.06;4427871;32;20294;-96
2022/01/06 11:05:29;;;;;;;;;;;;;;;7.63;59.61;99401.28;4428227;32;19989;-94
2022/01/06 11:07:54;;;;;;;;;;;;;;;7.86;59.62;99411.88;4440551;32;20514;-94
2022/01/06 11:10:21;;;;;;;;;;;;;;;7.89;59.62;99406.63;4440211;32;20275;-95
2022/01/06 11:12:46;;;;;;;;;;;;;;;7.95;59.62;99401.25;4440212;32;19986;-95
2022/01/06 11:15:11;;;;;;;;;;;;;;;7.79;59.61;99401.69;4439962;32;19989;-94
2022/01/06 11:17:37;;;;;;;;;;;;;;;8.02;59.62;99413.16;4440068;32;20037;-94
2022/01/06 11:20:02;;;;;;;;;;;;;;;8.07;59.62;99417.41;4426797;32;20239;-93
2022/01/06 11:22:28;;;;;;;;;;;;;;;7.98;59.62;99421.06;4439704;32;20027;-92
2022/01/06 11:24:56;;;;;;;;;;;;;;;7.80;59.61;99424.13;4440200;32;20030;-95
2022/01/06 11:27:40;;;;;;;;;;;;;;;7.88;59.62;99417.03;4427238;32;20008;-94
2022/01/06 11:30:23;;;;;;;;;;;;;;;7.64;59.60;99427.13;4427221;32;19988;-94
2022/01/06 11:32:56;;;;;;;;;;;;;;;7.62;59.61;99428.91;4426724;32;19998;-95
2022/01/06 11:35:22;;;;;;;;;;;;;;;7.70;59.61;99421.78;4427715;32;19994;-92
2022/01/06 11:37:48;;;;;;;;;;;;;;;7.72;59.60;99424.34;4440068;32;20392;-95
2022/01/06 11:40:14;;;;;;;;;;;;;;;7.80;59.61;99411.16;4427151;32;19989;-94
2022/01/06 11:42:41;;;;;;;;;;;;;;;7.67;59.60;99421.87;4426637;32;19968;-94
2022/01/06 11:45:06;;;;;;;;;;;;;;;7.67;59.60;99426.19;4427246;32;19990;-93
2022/01/06 11:47:33;;;;;;;;;;;;;;;7.62;59.61;99428.91;4427824;32;20033;-93
2022/01/06 11:50:08;;;;;;;;;;;;;;;7.65;59.60;99430.56;4440157;32;20040;-95
2022/01/06 11:52:34;;;;;;;;;;;;;;;7.74;59.61;99437.25;4427507;32;19977;-94
2022/01/06 11:55:01;;;;;;;;;;;;;;;7.77;59.61;99432.84;4439822;32;20262;-93
2022/01/06 11:57:30;;;;;;;;;;;;;;;7.70;59.61;99437.34;4439896;32;20648;-95
2022/01/06 11:59:55;;;;;;;;;;;;;;;7.62;59.61;99436.69;4426991;32;19985;-93
2022/01/06 12:02:21;;;;;;;;;;;;;;;7.86;59.62;99422.25;4438859;32;19981;-93
2022/01/06 12:04:57;;;;;;;;;;;;;;;8.08;59.63;99422.53;4426810;32;19981;-93
2022/01/06 12:07:22;;;;;;;;;;;;;;;7.93;59.62;99426.38;4427130;32;20060;-93
2022/01/06 12:09:59;;;;;;;;;;;;;;;7.73;59.61;99415.66;4439615;32;20016;-94
2022/01/06 12:12:32;;;;;;;;;;;;;;;7.83;59.62;99424.06;4427104;32;20026;-94
2022/01/06 12:15:10;;;;;;;;;;;;;;;7.93;59.62;99415.16;4427411;32;20044;-94
2022/01/06 12:17:35;;;;;;;;;;;;;;;7.98;59.62;99426.25;4440170;32;19970;-95
2022/01/06 12:20:03;;;;;;;;;;;;;;;7.96;59.62;99428.87;4440342;32;19989;-94
2022/01/06 12:22:28;;;;;;;;;;;;;;;7.99;59.63;99441.75;4440237;32;19977;-94
2022/01/06 12:25:03;;;;;;;;;;;;;;;7.93;59.63;99447.09;4440221;32;20350;-94
2022/01/06 12:27:29;;;;;;;;;;;;;;;7.79;59.61;99443.16;4427640;32;20060;-95
2022/01/06 12:29:56;;;;;;;;;;;;;;;7.88;59.62;99448.12;4427163;32;20259;-94
2022/01/06 12:32:21;;;;;;;;;;;;;;;8.11;59.63;99448.38;4439696;32;20042;-94
2022/01/06 12:34:53;;;;;;;;;;;;;;;7.88;59.62;99451.56;4439977;32;19985;-91
2022/01/06 12:37:27;;;;;;;;;;;;;;;7.76;59.62;99462.22;4426677;32;19984;-93
2022/01/06 12:39:53;;;;;;;;;;;;;;;7.81;59.62;99462.13;4426516;32;19982;-94
2022/01/06 12:42:18;;;;;;;;;;;;;;;8.08;59.63;99461.41;4439082;32;20417;-94
2022/01/06 12:44:43;;;;;;;;;;;;;;;7.89;59.62;99461.03;4439408;32;19989;-93
2022/01/06 12:47:09;;;;;;;;;;;;;;;7.88;59.62;99469.69;4439404;32;20007;-95
2022/01/06 12:49:34;;;;;;;;;;;;;;;8.03;59.62;99476.22;4439123;32;20364;-93
2022/01/06 12:52:01;;;;;;;;;;;;;;;7.86;59.62;99471.47;4439802;32;20005;-92
2022/01/06 12:54:26;;;;;;;;;;;;;;;8.01;59.63;99478.84;4425979;32;20049;-93
2022/01/06 12:56:55;;;;;;;;;;;;;;;7.68;59.60;99477.13;4439450;32;19985;-96
2022/01/06 12:59:33;;;;;;;;;;;;;;;7.84;59.62;99490.56;4426406;32;20004;-93
2022/01/06 13:01:59;;;;;;;;;;;;;;;7.78;59.62;99486.34;4426469;32;19978;-93
2022/01/06 13:04:27;;;;;;;;;;;;;;;7.76;59.62;99490.72;4439433;32;20013;-95
2022/01/06 13:06:56;;;;;;;;;;;;;;;7.76;59.62;99490.72;4426543;32;20061;-94
2022/01/06 13:09:22;;;;;;;;;;;;;;;7.96;59.62;99488.50;4438382;32;20037;-94
2022/01/06 13:11:48;;;;;;;;;;;;;;;7.98;59.62;99491.88;4426141;32;19993;-93
2022/01/06 13:14:26;;;;;;;;;;;;;;;8.25;59.64;99482.53;4426347;32;19995;-93
2022/01/06 13:16:51;;;;;;;;;;;;;;;8.36;59.64;99484.03;4426585;32;19994;-92
2022/01/06 13:19:17;;;;;;;;;;;;;;;8.48;59.65;99489.72;4439337;32;20000;-92
2022/01/06 13:21:48;;;;;;;;;;;;;;;8.31;59.64;99486.72;4438857;32;19978;-94
2022/01/06 13:24:14;;;;;;;;;;;;;;;8.27;59.64;99485.94;4426378;32;19985;-93
2022/01/06 13:26:49;;;;;;;;;;;;;;;8.31;59.65;99490.19;4440324;32;20027;-93
2022/01/06 13:29:30;;;;;;;;;;;;;;;8.37;59.65;99502.16;4426531;32;19981;-94
2022/01/06 13:31:59;;;;;;;;;;;;;;;8.43;59.64;99490.75;4426711;32;20015;-93
2022/01/06 13:34:24;;;;;;;;;;;;;;;8.38;59.65;99492.63;4425877;32;19993;-95
2022/01/06 13:36:49;;;;;;;;;;;;;;;8.14;59.64;99492.34;4438501;32;19989;-93
2022/01/06 13:39:14;;;;;;;;;;;;;;;8.14;59.64;99505.31;4438600;32;19992;-94
2022/01/06 13:41:40;;;;;;;;;;;;;;;8.10;59.63;99502.84;4438645;32;20004;-94
2022/01/06 13:44:08;;;;;;;;;;;;;;;8.00;59.62;99508.25;4425580;32;19989;-94
2022/01/06 13:46:50;;;;;;;;;;;;;;;8.17;59.64;99500.06;4438118;32;20357;-94
2022/01/06 13:52:00;;;;;;;;;;;;;;;8.15;59.64;99513.94;4438780;32;19985;-93
2022/01/06 13:54:28;;;;;;;;;;;;;;;7.96;59.61;99506.63;4437790;32;20001;-93
2022/01/06 13:56:53;;;;;;;;;;;;;;;7.88;59.62;99525.88;4424515;32;19993;-94
2022/01/06 13:59:18;;;;;;;;;;;;;;;8.02;59.63;99523.75;4438191;32;20015;-94
2022/01/06 14:01:45;;;;;;;;;;;;;;;7.90;59.61;99539.62;4438458;32;19973;-93
2022/01/06 14:04:17;;;;;;;;;;;;;;;7.87;59.62;99535.37;4425437;32;20011;-93